sensor_id;sensor_type;location;lat;lon;timestamp;temperature;humidity
17452;DHT22;8843;48.838;9.324;2022-09-09T00:01:40;21.00;69.00
17452;DHT22;8843;48.838;9.324;2022-09-09T00:04:13;21.00;69.00
17452;DHT22;8843;48.838;9.324;2022-09-09T00:06:45;21.00;69.00
17452;DHT22;8843;48.838;9.324;2022-09-09T00:09:16;21.00;69.00
17452;DHT22;8843;48.838;9.324;2022-09-09T00:11:47;21.00;69.00
17452;DHT22;8843;48.838;9.324;2022-09-09T00:14:25;21.00;69.00
17452;DHT22;8843;48.838;9.324;2022-09-09T00:17:02;21.00;69.00
17452;DHT22;8843;48.838;9.324;2022-09-09T00:19:35;21.00;69.00
17452;DHT22;8843;48.838;9.324;2022-09-09T00:22:12;21.00;69.00
17452;DHT22;8843;48.838;9.324;2022-09-09T00:24:43;21.00;69.00
17452;DHT22;8843;48.838;9.324;2022-09-09T00:27:19;20.90;69.00
17452;DHT22;8843;48.838;9.324;2022-09-09T00:29:52;20.90;68.90
17452;DHT22;8843;48.838;9.324;2022-09-09T00:32:20;20.90;68.90
17452;DHT22;8843;48.838;9.324;2022-09-09T00:34:49;20.90;69.00
17452;DHT22;8843;48.838;9.324;2022-09-09T00:37:19;20.90;69.00
17452;DHT22;8843;48.838;9.324;2022-09-09T00:39:48;20.90;68.90
17452;DHT22;8843;48.838;9.324;2022-09-09T00:42:20;20.90;68.90
17452;DHT22;8843;48.838;9.324;2022-09-09T00:44:56;20.90;69.00
17452;DHT22;8843;48.838;9.324;2022-09-09T00:47:39;20.90;68.90
17452;DHT22;8843;48.838;9.324;2022-09-09T00:53:14;20.90;68.90
17452;DHT22;8843;48.838;9.324;2022-09-09T00:55:48;20.90;68.90
17452;DHT22;8843;48.838;9.324;2022-09-09T00:58:18;20.90;69.00
17452;DHT22;8843;48.838;9.324;2022-09-09T01:00:51;20.90;69.00
17452;DHT22;8843;48.838;9.324;2022-09-09T01:03:22;20.90;69.00
17452;DHT22;8843;48.838;9.324;2022-09-09T01:06:01;20.90;69.00
17452;DHT22;8843;48.838;9.324;2022-09-09T01:08:40;20.90;68.90
17452;DHT22;8843;48.838;9.324;2022-09-09T01:11:16;20.90;69.00
17452;DHT22;8843;48.838;9.324;2022-09-09T01:13:45;20.80;68.80
17452;DHT22;8843;48.838;9.324;2022-09-09T01:16:17;20.90;68.90
17452;DHT22;8843;48.838;9.324;2022-09-09T01:18:46;20.90;69.00
17452;DHT22;8843;48.838;9.324;2022-09-09T01:21:21;20.90;69.00
17452;DHT22;8843;48.838;9.324;2022-09-09T01:24:03;20.80;68.90
17452;DHT22;8843;48.838;9.324;2022-09-09T01:26:34;20.80;68.90
17452;DHT22;8843;48.838;9.324;2022-09-09T01:29:02;20.80;69.70
17452;DHT22;8843;48.838;9.324;2022-09-09T01:31:31;20.80;68.90
17452;DHT22;8843;48.838;9.324;2022-09-09T01:33:59;20.80;69.00
17452;DHT22;8843;48.838;9.324;2022-09-09T01:36:31;20.80;68.90
17452;DHT22;8843;48.838;9.324;2022-09-09T01:39:00;20.80;68.90
17452;DHT22;8843;48.838;9.324;2022-09-09T01:41:27;20.80;69.00
17452;DHT22;8843;48.838;9.324;2022-09-09T01:43:56;20.80;69.00
17452;DHT22;8843;48.838;9.324;2022-09-09T01:46:24;20.80;68.90
17452;DHT22;8843;48.838;9.324;2022-09-09T01:48:52;20.80;68.90
17452;DHT22;8843;48.838;9.324;2022-09-09T01:51:19;20.80;68.90
17452;DHT22;8843;48.838;9.324;2022-09-09T01:53:46;20.80;69.00
17452;DHT22;8843;48.838;9.324;2022-09-09T01:56:26;20.80;69.00
17452;DHT22;8843;48.838;9.324;2022-09-09T01:59:07;20.80;69.00
17452;DHT22;8843;48.838;9.324;2022-09-09T02:01:48;20.80;69.00
17452;DHT22;8843;48.838;9.324;2022-09-09T02:04:29;20.80;69.00
17452;DHT22;8843;48.838;9.324;2022-09-09T02:07:00;20.80;69.00
17452;DHT22;8843;48.838;9.324;2022-09-09T02:09:27;20.80;69.00
17452;DHT22;8843;48.838;9.324;2022-09-09T02:12:00;20.80;69.00
17452;DHT22;8843;48.838;9.324;2022-09-09T02:14:32;20.80;69.00
17452;DHT22;8843;48.838;9.324;2022-09-09T02:17:06;20.80;69.00
17452;DHT22;8843;48.838;9.324;2022-09-09T02:19:37;20.70;68.90
17452;DHT22;8843;48.838;9.324;2022-09-09T02:22:05;20.70;68.90
17452;DHT22;8843;48.838;9.324;2022-09-09T02:24:38;20.70;69.00
17452;DHT22;8843;48.838;9.324;2022-09-09T02:27:07;20.70;68.80
17452;DHT22;8843;48.838;9.324;2022-09-09T02:29:39;20.70;68.90
17452;DHT22;8843;48.838;9.324;2022-09-09T02:32:11;20.70;68.90
17452;DHT22;8843;48.838;9.324;2022-09-09T02:34:43;20.70;68.90
17452;DHT22;8843;48.838;9.324;2022-09-09T02:37:12;20.70;68.90
17452;DHT22;8843;48.838;9.324;2022-09-09T02:39:40;20.70;68.90
17452;DHT22;8843;48.838;9.324;2022-09-09T02:42:07;20.70;68.90
17452;DHT22;8843;48.838;9.324;2022-09-09T02:44:36;20.70;68.90
17452;DHT22;8843;48.838;9.324;2022-09-09T02:47:29;20.70;68.90
17452;DHT22;8843;48.838;9.324;2022-09-09T02:50:06;20.70;68.90
17452;DHT22;8843;48.838;9.324;2022-09-09T02:52:42;20.70;68.90
17452;DHT22;8843;48.838;9.324;2022-09-09T02:55:18;20.70;69.00
17452;DHT22;8843;48.838;9.324;2022-09-09T02:57:49;20.70;69.00
17452;DHT22;8843;48.838;9.324;2022-09-09T03:00:22;20.70;69.00
17452;DHT22;8843;48.838;9.324;2022-09-09T03:02:50;20.70;69.00
17452;DHT22;8843;48.838;9.324;2022-09-09T03:05:17;20.60;68.90
17452;DHT22;8843;48.838;9.324;2022-09-09T03:07:44;20.60;68.90
17452;DHT22;8843;48.838;9.324;2022-09-09T03:10:11;20.60;68.90
17452;DHT22;8843;48.838;9.324;2022-09-09T03:12:37;20.60;69.00
17452;DHT22;8843;48.838;9.324;2022-09-09T03:15:06;20.60;68.90
17452;DHT22;8843;48.838;9.324;2022-09-09T03:17:35;20.60;68.90
17452;DHT22;8843;48.838;9.324;2022-09-09T03:20:02;20.60;68.90
17452;DHT22;8843;48.838;9.324;2022-09-09T03:22:29;20.60;68.90
17452;DHT22;8843;48.838;9.324;2022-09-09T03:24:56;20.60;68.90
17452;DHT22;8843;48.838;9.324;2022-09-09T03:27:23;20.60;68.90
17452;DHT22;8843;48.838;9.324;2022-09-09T03:29:50;20.60;68.90
17452;DHT22;8843;48.838;9.324;2022-09-09T03:32:17;20.60;68.90
17452;DHT22;8843;48.838;9.324;2022-09-09T03:34:46;20.60;68.90
17452;DHT22;8843;48.838;9.324;2022-09-09T03:37:15;20.60;68.90
17452;DHT22;8843;48.838;9.324;2022-09-09T03:39:42;20.60;68.90
17452;DHT22;8843;48.838;9.324;2022-09-09T03:42:09;20.60;68.90
17452;DHT22;8843;48.838;9.324;2022-09-09T03:44:36;20.60;68.90
17452;DHT22;8843;48.838;9.324;2022-09-09T03:47:03;20.60;68.80
17452;DHT22;8843;48.838;9.324;2022-09-09T03:49:30;20.50;68.80
17452;DHT22;8843;48.838;9.324;2022-09-09T03:51:58;20.60;68.80
17452;DHT22;8843;48.838;9.324;2022-09-09T03:54:26;20.50;68.80
17452;DHT22;8843;48.838;9.324;2022-09-09T03:56:53;20.50;68.80
17452;DHT22;8843;48.838;9.324;2022-09-09T03:59:20;20.50;68.80
17452;DHT22;8843;48.838;9.324;2022-09-09T04:01:48;20.50;68.80
17452;DHT22;8843;48.838;9.324;2022-09-09T04:04:15;20.50;68.80
17452;DHT22;8843;48.838;9.324;2022-09-09T04:06:42;20.50;68.80
17452;DHT22;8843;48.838;9.324;2022-09-09T04:09:10;20.50;68.80
17452;DHT22;8843;48.838;9.324;2022-09-09T04:11:37;20.50;68.80
17452;DHT22;8843;48.838;9.324;2022-09-09T04:14:04;20.50;68.80
17452;DHT22;8843;48.838;9.324;2022-09-09T04:16:31;20.50;68.80
17452;DHT22;8843;48.838;9.324;2022-09-09T04:18:58;20.50;68.80
17452;DHT22;8843;48.838;9.324;2022-09-09T04:21:26;20.50;68.80
17452;DHT22;8843;48.838;9.324;2022-09-09T04:23:53;20.50;68.90
17452;DHT22;8843;48.838;9.324;2022-09-09T04:26:22;20.50;68.90
17452;DHT22;8843;48.838;9.324;2022-09-09T04:28:49;20.50;68.90
17452;DHT22;8843;48.838;9.324;2022-09-09T04:31:18;20.40;68.80
17452;DHT22;8843;48.838;9.324;2022-09-09T04:33:45;20.40;68.80
17452;DHT22;8843;48.838;9.324;2022-09-09T04:36:13;20.40;68.80
17452;DHT22;8843;48.838;9.324;2022-09-09T04:38:40;20.40;68.80
17452;DHT22;8843;48.838;9.324;2022-09-09T04:41:07;20.40;68.80
17452;DHT22;8843;48.838;9.324;2022-09-09T04:43:38;20.40;69.50
17452;DHT22;8843;48.838;9.324;2022-09-09T04:46:05;20.40;68.80
17452;DHT22;8843;48.838;9.324;2022-09-09T04:48:32;20.40;68.80
17452;DHT22;8843;48.838;9.324;2022-09-09T04:51:00;20.40;69.50
17452;DHT22;8843;48.838;9.324;2022-09-09T04:53:28;20.40;68.80
17452;DHT22;8843;48.838;9.324;2022-09-09T04:56:01;20.40;68.80
17452;DHT22;8843;48.838;9.324;2022-09-09T04:58:28;20.40;68.80
17452;DHT22;8843;48.838;9.324;2022-09-09T05:01:05;20.40;68.90
17452;DHT22;8843;48.838;9.324;2022-09-09T05:03:32;20.40;68.80
17452;DHT22;8843;48.838;9.324;2022-09-09T05:06:06;20.40;68.90
17452;DHT22;8843;48.838;9.324;2022-09-09T05:08:34;20.40;68.90
17452;DHT22;8843;48.838;9.324;2022-09-09T05:11:01;20.40;68.90
17452;DHT22;8843;48.838;9.324;2022-09-09T05:13:28;20.40;68.90
17452;DHT22;8843;48.838;9.324;2022-09-09T05:15:57;20.40;68.90
17452;DHT22;8843;48.838;9.324;2022-09-09T05:18:25;20.40;68.80
17452;DHT22;8843;48.838;9.324;2022-09-09T05:20:52;20.40;68.80
17452;DHT22;8843;48.838;9.324;2022-09-09T05:23:19;20.40;68.90
17452;DHT22;8843;48.838;9.324;2022-09-09T05:25:55;20.40;68.90
17452;DHT22;8843;48.838;9.324;2022-09-09T05:28:23;20.30;68.80
17452;DHT22;8843;48.838;9.324;2022-09-09T05:30:58;20.40;68.90
17452;DHT22;8843;48.838;9.324;2022-09-09T05:33:27;20.40;68.90
17452;DHT22;8843;48.838;9.324;2022-09-09T05:35:58;20.30;68.80
17452;DHT22;8843;48.838;9.324;2022-09-09T05:38:25;20.30;68.90
17452;DHT22;8843;48.838;9.324;2022-09-09T05:40:53;20.30;68.90
17452;DHT22;8843;48.838;9.324;2022-09-09T05:43:20;20.10;68.70
17452;DHT22;8843;48.838;9.324;2022-09-09T05:45:47;20.00;72.70
17452;DHT22;8843;48.838;9.324;2022-09-09T05:48:14;20.20;70.60
17452;DHT22;8843;48.838;9.324;2022-09-09T05:50:43;20.20;69.30
17452;DHT22;8843;48.838;9.324;2022-09-09T05:53:10;20.20;68.90
17452;DHT22;8843;48.838;9.324;2022-09-09T05:55:37;20.20;69.00
17452;DHT22;8843;48.838;9.324;2022-09-09T05:58:04;20.20;68.80
17452;DHT22;8843;48.838;9.324;2022-09-09T06:00:31;20.30;68.80
17452;DHT22;8843;48.838;9.324;2022-09-09T06:02:58;20.30;68.90
17452;DHT22;8843;48.838;9.324;2022-09-09T06:05:25;20.30;68.80
17452;DHT22;8843;48.838;9.324;2022-09-09T06:07:55;20.30;68.80
17452;DHT22;8843;48.838;9.324;2022-09-09T06:10:22;20.20;68.10
17452;DHT22;8843;48.838;9.324;2022-09-09T06:12:52;20.20;69.00
17452;DHT22;8843;48.838;9.324;2022-09-09T06:15:19;20.20;68.90
17452;DHT22;8843;48.838;9.324;2022-09-09T06:17:46;20.20;68.70
17452;DHT22;8843;48.838;9.324;2022-09-09T06:20:14;20.20;68.70
17452;DHT22;8843;48.838;9.324;2022-09-09T06:22:41;20.20;68.70
17452;DHT22;8843;48.838;9.324;2022-09-09T06:25:10;20.20;68.70
17452;DHT22;8843;48.838;9.324;2022-09-09T06:27:38;19.90;65.10
17452;DHT22;8843;48.838;9.324;2022-09-09T06:30:05;19.80;65.40
17452;DHT22;8843;48.838;9.324;2022-09-09T06:32:33;20.10;71.10
17452;DHT22;8843;48.838;9.324;2022-09-09T06:35:04;20.20;70.00
17452;DHT22;8843;48.838;9.324;2022-09-09T06:37:30;20.30;69.70
17452;DHT22;8843;48.838;9.324;2022-09-09T06:39:57;20.30;69.60
17452;DHT22;8843;48.838;9.324;2022-09-09T06:42:26;20.30;69.60
17452;DHT22;8843;48.838;9.324;2022-09-09T06:44:52;20.20;69.50
17452;DHT22;8843;48.838;9.324;2022-09-09T06:47:19;20.20;69.40
17452;DHT22;8843;48.838;9.324;2022-09-09T06:49:46;20.20;69.50
17452;DHT22;8843;48.838;9.324;2022-09-09T06:52:13;20.20;69.30
17452;DHT22;8843;48.838;9.324;2022-09-09T06:54:40;20.20;69.40
17452;DHT22;8843;48.838;9.324;2022-09-09T06:57:07;20.20;69.50
17452;DHT22;8843;48.838;9.324;2022-09-09T06:59:35;20.20;69.50
17452;DHT22;8843;48.838;9.324;2022-09-09T07:02:02;20.20;69.50
17452;DHT22;8843;48.838;9.324;2022-09-09T07:04:29;20.20;69.50
17452;DHT22;8843;48.838;9.324;2022-09-09T07:06:56;20.20;69.50
17452;DHT22;8843;48.838;9.324;2022-09-09T07:09:24;20.20;69.50
17452;DHT22;8843;48.838;9.324;2022-09-09T07:11:53;20.20;69.50
17452;DHT22;8843;48.838;9.324;2022-09-09T07:14:22;20.20;69.50
17452;DHT22;8843;48.838;9.324;2022-09-09T07:16:50;20.20;69.50
17452;DHT22;8843;48.838;9.324;2022-09-09T07:19:17;20.20;69.50
17452;DHT22;8843;48.838;9.324;2022-09-09T07:21:44;20.20;69.50
17452;DHT22;8843;48.838;9.324;2022-09-09T07:24:11;20.20;69.50
17452;DHT22;8843;48.838;9.324;2022-09-09T07:26:39;20.20;69.50
17452;DHT22;8843;48.838;9.324;2022-09-09T07:29:06;20.20;69.50
17452;DHT22;8843;48.838;9.324;2022-09-09T07:31:35;20.20;69.50
17452;DHT22;8843;48.838;9.324;2022-09-09T07:34:04;20.10;68.70
17452;DHT22;8843;48.838;9.324;2022-09-09T07:36:33;19.90;67.50
17452;DHT22;8843;48.838;9.324;2022-09-09T07:39:02;19.80;67.90
17452;DHT22;8843;48.838;9.324;2022-09-09T07:41:32;19.70;67.90
17452;DHT22;8843;48.838;9.324;2022-09-09T07:44:03;19.80;68.40
17452;DHT22;8843;48.838;9.324;2022-09-09T07:46:30;19.80;70.20
17452;DHT22;8843;48.838;9.324;2022-09-09T07:48:57;19.80;67.70
17452;DHT22;8843;48.838;9.324;2022-09-09T07:51:27;19.80;69.40
17452;DHT22;8843;48.838;9.324;2022-09-09T07:53:56;19.90;69.70
17452;DHT22;8843;48.838;9.324;2022-09-09T07:56:25;20.00;69.50
17452;DHT22;8843;48.838;9.324;2022-09-09T07:58:54;20.10;69.60
17452;DHT22;8843;48.838;9.324;2022-09-09T08:01:23;20.10;69.80
17452;DHT22;8843;48.838;9.324;2022-09-09T08:03:54;20.10;68.50
17452;DHT22;8843;48.838;9.324;2022-09-09T08:06:26;20.10;69.50
17452;DHT22;8843;48.838;9.324;2022-09-09T08:08:53;20.10;67.90
17452;DHT22;8843;48.838;9.324;2022-09-09T08:11:23;19.90;68.10
17452;DHT22;8843;48.838;9.324;2022-09-09T08:13:51;19.90;69.00
17452;DHT22;8843;48.838;9.324;2022-09-09T08:16:20;19.90;68.70
17452;DHT22;8843;48.838;9.324;2022-09-09T08:18:48;19.90;69.00
17452;DHT22;8843;48.838;9.324;2022-09-09T08:21:16;20.00;70.00
17452;DHT22;8843;48.838;9.324;2022-09-09T08:23:46;20.10;68.80
17452;DHT22;8843;48.838;9.324;2022-09-09T08:26:14;20.00;68.60
17452;DHT22;8843;48.838;9.324;2022-09-09T08:28:41;20.10;71.00
17452;DHT22;8843;48.838;9.324;2022-09-09T08:31:12;20.20;69.80
17452;DHT22;8843;48.838;9.324;2022-09-09T08:33:39;20.30;67.90
17452;DHT22;8843;48.838;9.324;2022-09-09T08:36:09;20.20;68.80
17452;DHT22;8843;48.838;9.324;2022-09-09T08:38:36;20.10;69.40
17452;DHT22;8843;48.838;9.324;2022-09-09T08:41:28;20.20;68.40
17452;DHT22;8843;48.838;9.324;2022-09-09T08:44:02;20.40;72.30
17452;DHT22;8843;48.838;9.324;2022-09-09T08:46:38;20.60;70.10
17452;DHT22;8843;48.838;9.324;2022-09-09T08:49:17;20.40;68.60
17452;DHT22;8843;48.838;9.324;2022-09-09T08:51:46;20.30;68.50
17452;DHT22;8843;48.838;9.324;2022-09-09T08:54:15;20.30;71.30
17452;DHT22;8843;48.838;9.324;2022-09-09T08:56:43;20.30;69.40
17452;DHT22;8843;48.838;9.324;2022-09-09T08:59:14;20.50;71.20
17452;DHT22;8843;48.838;9.324;2022-09-09T09:02:02;20.60;70.00
17452;DHT22;8843;48.838;9.324;2022-09-09T09:04:38;20.80;70.20
17452;DHT22;8843;48.838;9.324;2022-09-09T09:07:18;20.70;69.20
17452;DHT22;8843;48.838;9.324;2022-09-09T09:09:54;20.60;69.90
17452;DHT22;8843;48.838;9.324;2022-09-09T09:12:28;20.60;68.80
17452;DHT22;8843;48.838;9.324;2022-09-09T09:14:56;20.60;69.00
17452;DHT22;8843;48.838;9.324;2022-09-09T09:17:26;20.60;69.40
17452;DHT22;8843;48.838;9.324;2022-09-09T09:19:57;20.70;70.70
17452;DHT22;8843;48.838;9.324;2022-09-09T09:22:32;20.90;70.50
17452;DHT22;8843;48.838;9.324;2022-09-09T09:25:08;21.00;70.20
17452;DHT22;8843;48.838;9.324;2022-09-09T09:27:42;21.10;70.20
17452;DHT22;8843;48.838;9.324;2022-09-09T09:30:15;21.10;70.40
17452;DHT22;8843;48.838;9.324;2022-09-09T09:32:48;21.10;69.70
17452;DHT22;8843;48.838;9.324;2022-09-09T09:35:16;21.20;69.60
17452;DHT22;8843;48.838;9.324;2022-09-09T09:37:44;21.30;68.10
17452;DHT22;8843;48.838;9.324;2022-09-09T09:40:11;21.30;70.30
17452;DHT22;8843;48.838;9.324;2022-09-09T09:42:48;21.40;67.50
17452;DHT22;8843;48.838;9.324;2022-09-09T09:45:18;21.40;67.20
17452;DHT22;8843;48.838;9.324;2022-09-09T09:47:58;21.40;66.50
17452;DHT22;8843;48.838;9.324;2022-09-09T09:50:25;21.40;65.40
17452;DHT22;8843;48.838;9.324;2022-09-09T09:52:56;21.40;65.40
17452;DHT22;8843;48.838;9.324;2022-09-09T09:55:24;21.40;65.90
17452;DHT22;8843;48.838;9.324;2022-09-09T09:57:53;21.40;67.90
17452;DHT22;8843;48.838;9.324;2022-09-09T10:00:22;21.30;65.70
17452;DHT22;8843;48.838;9.324;2022-09-09T10:02:50;21.40;65.40
17452;DHT22;8843;48.838;9.324;2022-09-09T10:05:19;21.70;61.50
17452;DHT22;8843;48.838;9.324;2022-09-09T10:07:47;22.00;61.20
17452;DHT22;8843;48.838;9.324;2022-09-09T10:10:36;21.80;62.00
17452;DHT22;8843;48.838;9.324;2022-09-09T10:13:11;21.70;63.10
17452;DHT22;8843;48.838;9.324;2022-09-09T10:15:46;21.80;62.20
17452;DHT22;8843;48.838;9.324;2022-09-09T10:18:30;21.90;62.20
17452;DHT22;8843;48.838;9.324;2022-09-09T10:21:13;21.80;62.30
17452;DHT22;8843;48.838;9.324;2022-09-09T10:23:55;22.00;62.00
17452;DHT22;8843;48.838;9.324;2022-09-09T10:26:35;21.90;62.60
17452;DHT22;8843;48.838;9.324;2022-09-09T10:29:26;21.90;63.20
17452;DHT22;8843;48.838;9.324;2022-09-09T10:32:09;22.30;62.30
17452;DHT22;8843;48.838;9.324;2022-09-09T10:34:55;22.30;61.70
17452;DHT22;8843;48.838;9.324;2022-09-09T10:37:40;22.20;61.80
17452;DHT22;8843;48.838;9.324;2022-09-09T10:40:20;22.10;62.90
17452;DHT22;8843;48.838;9.324;2022-09-09T10:42:52;23.00;62.90
17452;DHT22;8843;48.838;9.324;2022-09-09T10:45:28;22.70;63.40
17452;DHT22;8843;48.838;9.324;2022-09-09T10:48:13;22.70;61.90
17452;DHT22;8843;48.838;9.324;2022-09-09T10:50:56;22.80;61.90
17452;DHT22;8843;48.838;9.324;2022-09-09T10:53:35;23.10;61.20
17452;DHT22;8843;48.838;9.324;2022-09-09T10:56:06;22.90;62.20
17452;DHT22;8843;48.838;9.324;2022-09-09T10:58:39;22.80;61.50
17452;DHT22;8843;48.838;9.324;2022-09-09T11:01:15;22.30;61.30
17452;DHT22;8843;48.838;9.324;2022-09-09T11:03:50;22.40;61.60
17452;DHT22;8843;48.838;9.324;2022-09-09T11:06:20;22.10;61.50
17452;DHT22;8843;48.838;9.324;2022-09-09T11:08:48;22.10;61.80
17452;DHT22;8843;48.838;9.324;2022-09-09T11:11:20;22.30;62.90
17452;DHT22;8843;48.838;9.324;2022-09-09T11:13:53;22.10;61.70
17452;DHT22;8843;48.838;9.324;2022-09-09T11:16:27;22.30;62.60
17452;DHT22;8843;48.838;9.324;2022-09-09T11:19:00;22.10;61.90
17452;DHT22;8843;48.838;9.324;2022-09-09T11:21:32;22.50;62.10
17452;DHT22;8843;48.838;9.324;2022-09-09T11:24:03;22.90;62.00
17452;DHT22;8843;48.838;9.324;2022-09-09T11:26:33;22.50;61.80
17452;DHT22;8843;48.838;9.324;2022-09-09T11:32:04;23.10;60.00
17452;DHT22;8843;48.838;9.324;2022-09-09T11:34:49;22.50;61.00
17452;DHT22;8843;48.838;9.324;2022-09-09T11:37:25;22.50;60.10
17452;DHT22;8843;48.838;9.324;2022-09-09T11:40:09;22.40;59.60
17452;DHT22;8843;48.838;9.324;2022-09-09T11:42:41;22.50;59.50
17452;DHT22;8843;48.838;9.324;2022-09-09T11:45:10;22.30;60.00
17452;DHT22;8843;48.838;9.324;2022-09-09T11:47:39;22.40;60.00
17452;DHT22;8843;48.838;9.324;2022-09-09T11:50:26;22.50;59.70
17452;DHT22;8843;48.838;9.324;2022-09-09T11:53:14;22.50;59.80
17452;DHT22;8843;48.838;9.324;2022-09-09T11:55:42;22.40;60.00
17452;DHT22;8843;48.838;9.324;2022-09-09T11:58:16;22.40;59.90
17452;DHT22;8843;48.838;9.324;2022-09-09T12:00:45;22.20;60.50
17452;DHT22;8843;48.838;9.324;2022-09-09T12:03:36;22.10;60.70
17452;DHT22;8843;48.838;9.324;2022-09-09T12:06:13;22.00;60.00
17452;DHT22;8843;48.838;9.324;2022-09-09T12:08:43;22.10;61.40
17452;DHT22;8843;48.838;9.324;2022-09-09T12:11:11;22.00;60.20
17452;DHT22;8843;48.838;9.324;2022-09-09T12:13:38;21.80;62.70
17452;DHT22;8843;48.838;9.324;2022-09-09T12:16:29;21.90;61.70
17452;DHT22;8843;48.838;9.324;2022-09-09T12:19:12;21.80;61.70
17452;DHT22;8843;48.838;9.324;2022-09-09T12:21:45;21.90;60.90
17452;DHT22;8843;48.838;9.324;2022-09-09T12:24:19;21.90;59.30
17452;DHT22;8843;48.838;9.324;2022-09-09T12:26:53;22.20;57.90
17452;DHT22;8843;48.838;9.324;2022-09-09T12:29:28;22.40;56.70
17452;DHT22;8843;48.838;9.324;2022-09-09T12:32:02;22.20;59.50
17452;DHT22;8843;48.838;9.324;2022-09-09T12:34:38;22.20;58.90
17452;DHT22;8843;48.838;9.324;2022-09-09T12:37:14;22.10;59.80
17452;DHT22;8843;48.838;9.324;2022-09-09T12:39:45;22.10;59.30
17452;DHT22;8843;48.838;9.324;2022-09-09T12:42:17;22.20;59.40
17452;DHT22;8843;48.838;9.324;2022-09-09T12:44:54;22.40;59.10
17452;DHT22;8843;48.838;9.324;2022-09-09T12:47:24;22.30;59.90
17452;DHT22;8843;48.838;9.324;2022-09-09T12:49:53;22.20;58.30
17452;DHT22;8843;48.838;9.324;2022-09-09T12:52:26;22.20;58.80
17452;DHT22;8843;48.838;9.324;2022-09-09T12:54:56;22.20;58.30
17452;DHT22;8843;48.838;9.324;2022-09-09T12:57:25;22.20;57.30
17452;DHT22;8843;48.838;9.324;2022-09-09T13:00:02;22.20;59.60
17452;DHT22;8843;48.838;9.324;2022-09-09T13:02:30;22.10;58.10
17452;DHT22;8843;48.838;9.324;2022-09-09T13:05:08;22.10;58.20
17452;DHT22;8843;48.838;9.324;2022-09-09T13:07:39;22.00;58.00
17452;DHT22;8843;48.838;9.324;2022-09-09T13:10:11;22.00;58.60
17452;DHT22;8843;48.838;9.324;2022-09-09T13:12:38;22.00;58.80
17452;DHT22;8843;48.838;9.324;2022-09-09T13:15:14;22.00;57.60
17452;DHT22;8843;48.838;9.324;2022-09-09T13:17:50;22.00;58.10
17452;DHT22;8843;48.838;9.324;2022-09-09T13:20:21;21.90;58.30
17452;DHT22;8843;48.838;9.324;2022-09-09T13:22:49;21.90;59.20
17452;DHT22;8843;48.838;9.324;2022-09-09T13:25:20;22.00;54.80
17452;DHT22;8843;48.838;9.324;2022-09-09T13:27:59;22.10;54.80
17452;DHT22;8843;48.838;9.324;2022-09-09T13:33:04;22.20;53.40
17452;DHT22;8843;48.838;9.324;2022-09-09T13:35:31;22.30;57.60
17452;DHT22;8843;48.838;9.324;2022-09-09T13:37:59;22.20;56.80
17452;DHT22;8843;48.838;9.324;2022-09-09T13:40:33;22.20;55.20
17452;DHT22;8843;48.838;9.324;2022-09-09T13:43:00;22.20;55.40
17452;DHT22;8843;48.838;9.324;2022-09-09T13:45:27;22.30;53.70
17452;DHT22;8843;48.838;9.324;2022-09-09T13:47:55;22.30;54.40
17452;DHT22;8843;48.838;9.324;2022-09-09T13:50:25;22.20;54.00
17452;DHT22;8843;48.838;9.324;2022-09-09T13:52:54;22.30;54.80
17452;DHT22;8843;48.838;9.324;2022-09-09T13:55:23;22.70;55.50
17452;DHT22;8843;48.838;9.324;2022-09-09T13:57:51;22.70;56.30
17452;DHT22;8843;48.838;9.324;2022-09-09T14:00:18;22.70;56.60
17452;DHT22;8843;48.838;9.324;2022-09-09T14:02:46;22.60;57.50
17452;DHT22;8843;48.838;9.324;2022-09-09T14:05:13;22.60;57.00
17452;DHT22;8843;48.838;9.324;2022-09-09T14:07:42;22.60;57.30
17452;DHT22;8843;48.838;9.324;2022-09-09T14:10:10;22.50;56.90
17452;DHT22;8843;48.838;9.324;2022-09-09T14:12:38;22.40;57.50
17452;DHT22;8843;48.838;9.324;2022-09-09T14:15:07;22.30;56.50
17452;DHT22;8843;48.838;9.324;2022-09-09T14:17:36;22.30;58.80
17452;DHT22;8843;48.838;9.324;2022-09-09T14:20:03;22.30;57.30
17452;DHT22;8843;48.838;9.324;2022-09-09T14:22:38;22.30;59.00
17452;DHT22;8843;48.838;9.324;2022-09-09T14:25:08;22.30;59.50
17452;DHT22;8843;48.838;9.324;2022-09-09T14:27:35;22.40;58.00
17452;DHT22;8843;48.838;9.324;2022-09-09T14:30:03;22.30;61.20
17452;DHT22;8843;48.838;9.324;2022-09-09T14:32:30;22.20;59.10
17452;DHT22;8843;48.838;9.324;2022-09-09T14:34:58;22.20;58.60
17452;DHT22;8843;48.838;9.324;2022-09-09T14:37:27;22.10;58.50
17452;DHT22;8843;48.838;9.324;2022-09-09T14:39:56;22.50;55.20
17452;DHT22;8843;48.838;9.324;2022-09-09T14:42:24;22.80;54.40
17452;DHT22;8843;48.838;9.324;2022-09-09T14:44:52;22.60;56.40
17452;DHT22;8843;48.838;9.324;2022-09-09T14:47:19;22.50;55.80
17452;DHT22;8843;48.838;9.324;2022-09-09T14:49:46;22.40;55.80
17452;DHT22;8843;48.838;9.324;2022-09-09T14:52:15;22.50;54.70
17452;DHT22;8843;48.838;9.324;2022-09-09T14:54:42;22.30;58.90
17452;DHT22;8843;48.838;9.324;2022-09-09T14:57:09;22.10;57.00
17452;DHT22;8843;48.838;9.324;2022-09-09T14:59:37;22.20;56.20
17452;DHT22;8843;48.838;9.324;2022-09-09T15:02:05;22.10;57.50
17452;DHT22;8843;48.838;9.324;2022-09-09T15:04:32;22.10;57.10
17452;DHT22;8843;48.838;9.324;2022-09-09T15:06:59;22.10;56.30
17452;DHT22;8843;48.838;9.324;2022-09-09T15:09:25;22.10;57.10
17452;DHT22;8843;48.838;9.324;2022-09-09T15:11:52;22.10;56.70
17452;DHT22;8843;48.838;9.324;2022-09-09T15:14:19;22.10;58.00
17452;DHT22;8843;48.838;9.324;2022-09-09T15:16:48;22.00;56.70
17452;DHT22;8843;48.838;9.324;2022-09-09T15:19:15;22.00;56.90
17452;DHT22;8843;48.838;9.324;2022-09-09T15:21:41;22.00;57.10
17452;DHT22;8843;48.838;9.324;2022-09-09T15:24:08;22.00;56.70
17452;DHT22;8843;48.838;9.324;2022-09-09T15:26:36;22.20;56.60
17452;DHT22;8843;48.838;9.324;2022-09-09T15:29:04;22.10;56.70
17452;DHT22;8843;48.838;9.324;2022-09-09T15:31:31;22.00;56.50
17452;DHT22;8843;48.838;9.324;2022-09-09T15:34:01;22.00;56.60
17452;DHT22;8843;48.838;9.324;2022-09-09T15:36:29;22.00;56.20
17452;DHT22;8843;48.838;9.324;2022-09-09T15:38:57;21.90;56.30
17452;DHT22;8843;48.838;9.324;2022-09-09T15:41:25;21.90;57.10
17452;DHT22;8843;48.838;9.324;2022-09-09T15:43:54;21.90;56.30
17452;DHT22;8843;48.838;9.324;2022-09-09T15:46:26;21.90;58.40
17452;DHT22;8843;48.838;9.324;2022-09-09T15:48:54;21.90;56.20
17452;DHT22;8843;48.838;9.324;2022-09-09T15:51:23;21.90;58.30
17452;DHT22;8843;48.838;9.324;2022-09-09T15:53:55;21.90;57.00
17452;DHT22;8843;48.838;9.324;2022-09-09T15:56:22;21.80;58.30
17452;DHT22;8843;48.838;9.324;2022-09-09T15:58:49;21.80;58.00
17452;DHT22;8843;48.838;9.324;2022-09-09T16:01:17;21.80;57.30
17452;DHT22;8843;48.838;9.324;2022-09-09T16:03:45;21.80;57.10
17452;DHT22;8843;48.838;9.324;2022-09-09T16:06:13;21.70;59.20
17452;DHT22;8843;48.838;9.324;2022-09-09T16:08:43;21.70;59.00
17452;DHT22;8843;48.838;9.324;2022-09-09T16:11:12;21.80;56.70
17452;DHT22;8843;48.838;9.324;2022-09-09T16:13:41;21.80;59.70
17452;DHT22;8843;48.838;9.324;2022-09-09T16:16:10;21.80;58.00